Aérodrome :
LOGIN :

S'inscrire | Disclaimer

   EN    FR    IT 

 










Légende :    VFR   VFR Marginal   IFR   IFR Intensif   IFR Très Intensif
Visi : 
Plafond : 
>= 8 km
>= 3000ft
5 à 8 km
1000 à 3000 ft
1500m à 5 km
500 à 1000 ft
800 à 1500m
200 à 500 ft
< 800m
< 200 ft
Symboles :   Orages  Brouillard  Fortes neiges  Fortes précipitations  Vent > 20 kt
SIGMETs :   Divers  Orages  Givrage  Turbulence  Onde Orograph.  Cendres Volcan.







- Altitude de l'aérodrome : 600 ft
- Code IATA : VIE


LOWW - Vienna Schwechat

DERNIER METAR :
  • 240120Z 16006KT 7000 OVC056 02/01 Q1028 R88/19//95 NOSIG

METARs EXPIRÉS :
  • 240050Z 17005KT 6000 OVC058 02/01 Q1028 R88/19//95 NOSIG
  • 240020Z 16005KT 6000 OVC060 02/01 Q1028 R88/19//95 NOSIG
  • 232350Z 18006KT 8000 OVC060 02/02 Q1028 R88/19//95 NOSIG
  • 232320Z 17006KT 7000 FEW042 BKN060 02/02 Q1028 R88/19//95 NOSIG

TAF TAF LOWW
Valide du 24 à 00h jusqu'au 25 à 06h UTC


232315Z 2400/2506 16005KT 5000 BR FEW030 SCT060 TX04/2415Z TN00/2405Z
TEMPO 2400/2408 1200 BCFG SCT002
BECMG 2406/2409 8000 NSW BKN040
BECMG 2412/2414 15008KT CAVOK
PROB40 2502/2506 8000 BKN010
Pas de NOTAMs connus pour ce terrain.



MET'MAP, la Météo Aéronautique d'un coup d'oeil ! - Copyright ORBIFLY Décembre 2007 - Disclaimer

ORBIFLY MET'MAP TEAM :

Programmation & Développement : Alexandra Zaïnal
Conception & Développement : Baudouin d'Aumeries
Co-Programmation & Développement : Marc-Olivier Méhu
Soutien technique & logistique : Manuel Goepfert

Contact : metmap@orbifly.com




SOURCES & CREDITS :

   NOAA